SWA202 EDDL-EDDF
Flight info
| Callsign | SWA202 |
|---|---|
| Flight time | 0h 31m |
| Altitude | 23000 |
| Route | COL6T/23L COL T911 ROLIS ROLIS5A |
| Aircraft | B738/M-SDE2E3FGHIRWXY/LB1 |
Departure
| Time | 2026-04-17 12:56 |
|---|---|
| Airport | Düsseldorf Airport (EDDL) |
Arrival
| Time | 2026-04-17 13:27 |
|---|---|
| Airport | Frankfurt Main Airport (EDDF) |
| Time | Latitude | Longitude | Altitude | Speed | Heading |
|---|---|---|---|---|---|
| 2026-04-17 12:26 | 51.27748 | 6.75915 | 125 ft | 0 kts | 91° |
| 2026-04-17 12:44 | 51.27748 | 6.75912 | 129 ft | 2 kts | 91° |
| 2026-04-17 12:44 | 51.27748 | 6.75871 | 129 ft | 4 kts | 85° |
| 2026-04-17 12:44 | 51.27743 | 6.75830 | 126 ft | 4 kts | 58° |
| 2026-04-17 12:44 | 51.27730 | 6.75811 | 127 ft | 1 kts | 1° |
| 2026-04-17 12:45 | 51.27729 | 6.75811 | 127 ft | 0 kts | 1° |
| 2026-04-17 12:47 | 51.27737 | 6.75811 | 126 ft | 5 kts | 1° |
| 2026-04-17 12:47 | 51.27786 | 6.75812 | 129 ft | 7 kts | 1° |
| 2026-04-17 12:47 | 51.27837 | 6.75811 | 126 ft | 7 kts | 349° |
| 2026-04-17 12:48 | 51.27882 | 6.75803 | 127 ft | 7 kts | 22° |
| 2026-04-17 12:48 | 51.27932 | 6.75819 | 128 ft | 8 kts | 3° |
| 2026-04-17 12:48 | 51.27994 | 6.75824 | 127 ft | 9 kts | 3° |
| 2026-04-17 12:48 | 51.28049 | 6.75853 | 125 ft | 9 kts | 53° |
| 2026-04-17 12:49 | 51.28086 | 6.75931 | 125 ft | 9 kts | 53° |
| 2026-04-17 12:49 | 51.28122 | 6.76008 | 129 ft | 8 kts | 53° |
| 2026-04-17 12:49 | 51.28159 | 6.76085 | 127 ft | 10 kts | 52° |
| 2026-04-17 12:49 | 51.28203 | 6.76177 | 125 ft | 10 kts | 53° |
| 2026-04-17 12:50 | 51.28248 | 6.76271 | 127 ft | 11 kts | 53° |
| 2026-04-17 12:50 | 51.28300 | 6.76380 | 123 ft | 13 kts | 52° |
| 2026-04-17 12:50 | 51.28358 | 6.76502 | 121 ft | 16 kts | 52° |
| 2026-04-17 12:50 | 51.28436 | 6.76664 | 125 ft | 20 kts | 52° |
| 2026-04-17 12:51 | 51.28519 | 6.76839 | 123 ft | 20 kts | 53° |
| 2026-04-17 12:51 | 51.28601 | 6.77012 | 125 ft | 19 kts | 53° |
| 2026-04-17 12:51 | 51.28681 | 6.77179 | 126 ft | 19 kts | 52° |
| 2026-04-17 12:51 | 51.28769 | 6.77363 | 129 ft | 22 kts | 52° |
| 2026-04-17 12:52 | 51.28863 | 6.77560 | 127 ft | 22 kts | 52° |
| 2026-04-17 12:52 | 51.28956 | 6.77753 | 127 ft | 22 kts | 52° |
| 2026-04-17 12:52 | 51.29045 | 6.77940 | 129 ft | 21 kts | 52° |
| 2026-04-17 12:52 | 51.29132 | 6.78123 | 133 ft | 20 kts | 53° |
| 2026-04-17 12:53 | 51.29216 | 6.78300 | 139 ft | 20 kts | 53° |
| 2026-04-17 12:53 | 51.29296 | 6.78472 | 147 ft | 19 kts | 52° |
| 2026-04-17 12:53 | 51.29383 | 6.78573 | 151 ft | 12 kts | 14° |
| 2026-04-17 12:53 | 51.29425 | 6.78570 | 151 ft | 0 kts | 354° |
| 2026-04-17 12:54 | 51.29426 | 6.78570 | 151 ft | 1 kts | 354° |
| 2026-04-17 12:54 | 51.29455 | 6.78566 | 151 ft | 9 kts | 355° |
| 2026-04-17 12:55 | 51.29520 | 6.78511 | 152 ft | 12 kts | 288° |
| 2026-04-17 12:55 | 51.29481 | 6.78391 | 148 ft | 19 kts | 232° |
| 2026-04-17 12:55 | 51.29235 | 6.77875 | 137 ft | 97 kts | 232° |
| 2026-04-17 12:55 | 51.28683 | 6.76711 | 134 ft | 162 kts | 232° |
| 2026-04-17 12:56 | 51.27999 | 6.75220 | 866 ft | 162 kts | 234° |
| 2026-04-17 12:56 | 51.27367 | 6.73829 | 1934 ft | 147 kts | 234° |
| 2026-04-17 12:56 | 51.26774 | 6.72537 | 2741 ft | 144 kts | 234° |
| 2026-04-17 12:56 | 51.26120 | 6.71126 | 3094 ft | 173 kts | 233° |
| 2026-04-17 12:57 | 51.25330 | 6.69448 | 3434 ft | 205 kts | 233° |
| 2026-04-17 12:57 | 51.24429 | 6.67535 | 3666 ft | 230 kts | 233° |
| 2026-04-17 12:57 | 51.23415 | 6.65406 | 3973 ft | 252 kts | 230° |
| 2026-04-17 12:57 | 51.21984 | 6.63757 | 4640 ft | 259 kts | 197° |
| 2026-04-17 12:58 | 51.20188 | 6.63522 | 4990 ft | 260 kts | 175° |
| 2026-04-17 12:58 | 51.18395 | 6.63839 | 4986 ft | 258 kts | 174° |
| 2026-04-17 12:58 | 51.16603 | 6.64171 | 5003 ft | 261 kts | 174° |
| 2026-04-17 12:58 | 51.14860 | 6.65014 | 4988 ft | 266 kts | 148° |
| 2026-04-17 12:59 | 51.13585 | 6.67107 | 4996 ft | 267 kts | 121° |
| 2026-04-17 12:59 | 51.13057 | 6.69935 | 5000 ft | 269 kts | 95° |
| 2026-04-17 12:59 | 51.13089 | 6.72878 | 5006 ft | 270 kts | 88° |
| 2026-04-17 12:59 | 51.13215 | 6.75871 | 5001 ft | 271 kts | 88° |
| 2026-04-17 13:00 | 51.13354 | 6.78877 | 4995 ft | 272 kts | 88° |
| 2026-04-17 13:00 | 51.13487 | 6.81883 | 5010 ft | 273 kts | 88° |
| 2026-04-17 13:00 | 51.13613 | 6.84930 | 5459 ft | 277 kts | 88° |
| 2026-04-17 13:00 | 51.13736 | 6.87998 | 6454 ft | 277 kts | 88° |
| 2026-04-17 13:01 | 51.13854 | 6.91073 | 7347 ft | 280 kts | 88° |
| 2026-04-17 13:01 | 51.13971 | 6.94189 | 8158 ft | 285 kts | 88° |
| 2026-04-17 13:01 | 51.14090 | 6.97379 | 8994 ft | 290 kts | 88° |
| 2026-04-17 13:01 | 51.14208 | 7.00614 | 9833 ft | 295 kts | 88° |
| 2026-04-17 13:02 | 51.14326 | 7.03916 | 10482 ft | 307 kts | 88° |
| 2026-04-17 13:02 | 51.14450 | 7.07457 | 10675 ft | 333 kts | 88° |
| 2026-04-17 13:02 | 51.14394 | 7.11266 | 10852 ft | 356 kts | 102° |
| 2026-04-17 13:02 | 51.13762 | 7.15129 | 11174 ft | 372 kts | 107° |
| 2026-04-17 13:03 | 51.13056 | 7.19210 | 11755 ft | 382 kts | 106° |
| 2026-04-17 13:03 | 51.12371 | 7.23265 | 12459 ft | 386 kts | 110° |
| 2026-04-17 13:03 | 51.11066 | 7.27041 | 13124 ft | 387 kts | 133° |
| 2026-04-17 13:03 | 51.09073 | 7.29802 | 13924 ft | 384 kts | 149° |
| 2026-04-17 13:04 | 51.01692 | 7.36959 | 15915 ft | 398 kts | 152° |
| 2026-04-17 13:04 | 50.92084 | 7.46138 | 18407 ft | 413 kts | 151° |
| 2026-04-17 13:04 | 50.82022 | 7.55903 | 20426 ft | 427 kts | 150° |
| 2026-04-17 13:04 | 50.71081 | 7.64914 | 20260 ft | 449 kts | 161° |
| 2026-04-17 13:05 | 50.59759 | 7.71763 | 20037 ft | 423 kts | 160° |
| 2026-04-17 13:05 | 50.49124 | 7.78803 | 20071 ft | 409 kts | 159° |
| 2026-04-17 13:05 | 50.45306 | 7.81504 | 20099 ft | 415 kts | 152° |
| 2026-04-17 13:05 | 50.42911 | 7.84105 | 20111 ft | 422 kts | 142° |
| 2026-04-17 13:06 | 50.40834 | 7.87349 | 20103 ft | 422 kts | 131° |
| 2026-04-17 13:06 | 50.39010 | 7.90895 | 20027 ft | 416 kts | 129° |
| 2026-04-17 13:06 | 50.37227 | 7.94440 | 19784 ft | 407 kts | 129° |
| 2026-04-17 13:06 | 50.35498 | 7.97857 | 19665 ft | 394 kts | 130° |
| 2026-04-17 13:07 | 50.33903 | 8.00965 | 19569 ft | 380 kts | 130° |
| 2026-04-17 13:07 | 50.32815 | 8.03069 | 19469 ft | 368 kts | 130° |
| 2026-04-17 13:07 | 50.31226 | 8.06119 | 19214 ft | 355 kts | 131° |
| 2026-04-17 13:07 | 50.29154 | 8.09901 | 18901 ft | 337 kts | 139° |
| 2026-04-17 13:08 | 50.27962 | 8.11493 | 18721 ft | 330 kts | 143° |
| 2026-04-17 13:08 | 50.25575 | 8.14514 | 17487 ft | 342 kts | 143° |
| 2026-04-17 13:08 | 50.24322 | 8.16082 | 16672 ft | 353 kts | 143° |
| 2026-04-17 13:08 | 50.22363 | 8.18518 | 15503 ft | 366 kts | 143° |
| 2026-04-17 13:09 | 50.20344 | 8.21026 | 14459 ft | 374 kts | 141° |
| 2026-04-17 13:09 | 50.18595 | 8.24037 | 13569 ft | 375 kts | 127° |
| 2026-04-17 13:09 | 50.17141 | 8.27379 | 12887 ft | 368 kts | 124° |
| 2026-04-17 13:09 | 50.15748 | 8.30701 | 12178 ft | 362 kts | 123° |
| 2026-04-17 13:10 | 50.14385 | 8.33962 | 11482 ft | 357 kts | 123° |
| 2026-04-17 13:10 | 50.13055 | 8.37153 | 11156 ft | 341 kts | 124° |
| 2026-04-17 13:10 | 50.11806 | 8.40162 | 11033 ft | 321 kts | 124° |
| 2026-04-17 13:10 | 50.10634 | 8.43004 | 10903 ft | 303 kts | 123° |
| 2026-04-17 13:11 | 50.09524 | 8.45711 | 10764 ft | 287 kts | 123° |
| 2026-04-17 13:11 | 50.08482 | 8.48254 | 10483 ft | 280 kts | 123° |
| 2026-04-17 13:11 | 50.07437 | 8.50803 | 10094 ft | 277 kts | 123° |
| 2026-04-17 13:11 | 50.06404 | 8.53314 | 9647 ft | 274 kts | 124° |
| 2026-04-17 13:12 | 50.05383 | 8.55809 | 9202 ft | 273 kts | 123° |
| 2026-04-17 13:12 | 50.03377 | 8.60747 | 8659 ft | 261 kts | 123° |
| 2026-04-17 13:12 | 50.02412 | 8.63124 | 8617 ft | 261 kts | 124° |
| 2026-04-17 13:13 | 50.01423 | 8.65558 | 8635 ft | 269 kts | 123° |
| 2026-04-17 13:13 | 50.00413 | 8.68031 | 8644 ft | 273 kts | 123° |
| 2026-04-17 13:13 | 49.99399 | 8.70512 | 8521 ft | 272 kts | 124° |
| 2026-04-17 13:13 | 49.98394 | 8.72980 | 8389 ft | 270 kts | 123° |
| 2026-04-17 13:14 | 49.97402 | 8.75420 | 8269 ft | 269 kts | 123° |
| 2026-04-17 13:14 | 49.96393 | 8.77912 | 8139 ft | 270 kts | 123° |
| 2026-04-17 13:14 | 49.95395 | 8.80359 | 8041 ft | 270 kts | 124° |
| 2026-04-17 13:14 | 49.94398 | 8.82821 | 8008 ft | 268 kts | 120° |
| 2026-04-17 13:15 | 49.93795 | 8.85550 | 8010 ft | 271 kts | 98° |
| 2026-04-17 13:15 | 49.93894 | 8.88468 | 8013 ft | 273 kts | 77° |
| 2026-04-17 13:15 | 49.94429 | 8.91307 | 8010 ft | 274 kts | 74° |
| 2026-04-17 13:15 | 49.94988 | 8.94132 | 8008 ft | 273 kts | 74° |
| 2026-04-17 13:16 | 49.95548 | 8.96948 | 8008 ft | 273 kts | 74° |
| 2026-04-17 13:16 | 49.96113 | 8.99772 | 7949 ft | 275 kts | 73° |
| 2026-04-17 13:16 | 49.96650 | 9.02457 | 7694 ft | 277 kts | 73° |
| 2026-04-17 13:16 | 49.97219 | 9.05298 | 7401 ft | 276 kts | 73° |
| 2026-04-17 13:17 | 49.97798 | 9.08176 | 7039 ft | 280 kts | 73° |
| 2026-04-17 13:17 | 49.98382 | 9.11087 | 6688 ft | 282 kts | 73° |
| 2026-04-17 13:17 | 49.98971 | 9.14002 | 6309 ft | 284 kts | 71° |
| 2026-04-17 13:17 | 49.99973 | 9.16625 | 5915 ft | 287 kts | 45° |
| 2026-04-17 13:18 | 50.01645 | 9.18299 | 5537 ft | 288 kts | 18° |
| 2026-04-17 13:18 | 50.03595 | 9.18651 | 5166 ft | 288 kts | 353° |
| 2026-04-17 13:18 | 50.05531 | 9.18005 | 5060 ft | 279 kts | 345° |
| 2026-04-17 13:18 | 50.07372 | 9.17240 | 5005 ft | 269 kts | 344° |
| 2026-04-17 13:19 | 50.09138 | 9.16493 | 4989 ft | 257 kts | 343° |
| 2026-04-17 13:19 | 50.10828 | 9.15775 | 4981 ft | 245 kts | 343° |
| 2026-04-17 13:19 | 50.12375 | 9.14817 | 4990 ft | 236 kts | 322° |
| 2026-04-17 13:19 | 50.13385 | 9.12858 | 5018 ft | 233 kts | 291° |
| 2026-04-17 13:20 | 50.13889 | 9.10446 | 5020 ft | 235 kts | 284° |
| 2026-04-17 13:20 | 50.14331 | 9.07973 | 5020 ft | 238 kts | 284° |
| 2026-04-17 13:20 | 50.14764 | 9.05513 | 5019 ft | 237 kts | 283° |
| 2026-04-17 13:20 | 50.15196 | 9.03041 | 5011 ft | 235 kts | 283° |
| 2026-04-17 13:21 | 50.15596 | 9.00580 | 5000 ft | 231 kts | 276° |
| 2026-04-17 13:21 | 50.15387 | 8.98162 | 5006 ft | 227 kts | 243° |
| 2026-04-17 13:21 | 50.14411 | 8.96174 | 5032 ft | 242 kts | 225° |
| 2026-04-17 13:21 | 50.13187 | 8.94283 | 5017 ft | 250 kts | 224° |
| 2026-04-17 13:22 | 50.11929 | 8.92371 | 5022 ft | 252 kts | 227° |
| 2026-04-17 13:22 | 50.10930 | 8.90139 | 5010 ft | 249 kts | 238° |
| 2026-04-17 13:22 | 50.10049 | 8.87911 | 4984 ft | 238 kts | 238° |
| 2026-04-17 13:22 | 50.09431 | 8.85602 | 5004 ft | 225 kts | 254° |
| 2026-04-17 13:23 | 50.09100 | 8.83258 | 4999 ft | 211 kts | 264° |
| 2026-04-17 13:23 | 50.08999 | 8.81103 | 5002 ft | 194 kts | 263° |
| 2026-04-17 13:23 | 50.08723 | 8.79086 | 5006 ft | 188 kts | 251° |
| 2026-04-17 13:23 | 50.08354 | 8.77163 | 5011 ft | 181 kts | 253° |
| 2026-04-17 13:24 | 50.08024 | 8.75319 | 4873 ft | 177 kts | 252° |
| 2026-04-17 13:24 | 50.07716 | 8.73852 | 3834 ft | 165 kts | 250° |
| 2026-04-17 13:24 | 50.07323 | 8.72153 | 3373 ft | 169 kts | 248° |
| 2026-04-17 13:24 | 50.06913 | 8.70459 | 2908 ft | 170 kts | 250° |
| 2026-04-17 13:25 | 50.06538 | 8.68732 | 2345 ft | 170 kts | 250° |
| 2026-04-17 13:25 | 50.06129 | 8.67023 | 1998 ft | 163 kts | 247° |
| 2026-04-17 13:25 | 50.05727 | 8.65449 | 1651 ft | 157 kts | 247° |
| 2026-04-17 13:25 | 50.05284 | 8.63865 | 1139 ft | 160 kts | 247° |
| 2026-04-17 13:26 | 50.04908 | 8.62298 | 993 ft | 152 kts | 251° |
| 2026-04-17 13:26 | 50.04508 | 8.60723 | 787 ft | 157 kts | 249° |
| 2026-04-17 13:26 | 50.04112 | 8.59148 | 480 ft | 154 kts | 252° |
| 2026-04-17 13:26 | 50.03761 | 8.57632 | 368 ft | 138 kts | 250° |
| 2026-04-17 13:27 | 50.03487 | 8.56444 | 359 ft | 95 kts | 250° |
| 2026-04-17 13:27 | 50.03302 | 8.55706 | 356 ft | 52 kts | 249° |
| 2026-04-17 13:27 | 50.03223 | 8.55377 | 349 ft | 23 kts | 250° |
| 2026-04-17 13:27 | 50.03180 | 8.55198 | 351 ft | 16 kts | 250° |
| 2026-04-17 13:28 | 50.03143 | 8.55039 | 352 ft | 15 kts | 250° |
| 2026-04-17 13:28 | 50.03138 | 8.55019 | 350 ft | 3 kts | 250° |
| 2026-04-17 13:28 | 50.03128 | 8.54975 | 347 ft | 6 kts | 249° |
| 2026-04-17 13:28 | 50.03108 | 8.54895 | 346 ft | 8 kts | 249° |
| 2026-04-17 13:29 | 50.03094 | 8.54837 | 344 ft | 6 kts | 249° |
| 2026-04-17 13:29 | 50.03077 | 8.54767 | 338 ft | 8 kts | 249° |
| 2026-04-17 13:29 | 50.03057 | 8.54683 | 333 ft | 9 kts | 250° |
| 2026-04-17 13:29 | 50.03034 | 8.54584 | 333 ft | 10 kts | 250° |
| 2026-04-17 13:30 | 50.03010 | 8.54482 | 332 ft | 10 kts | 250° |
| 2026-04-17 13:30 | 50.02987 | 8.54382 | 330 ft | 10 kts | 250° |
| 2026-04-17 13:30 | 50.02959 | 8.54270 | 330 ft | 12 kts | 248° |
| 2026-04-17 13:30 | 50.02930 | 8.54152 | 327 ft | 12 kts | 248° |
| 2026-04-17 13:31 | 50.02900 | 8.54036 | 328 ft | 11 kts | 248° |